Time;durP1;ratioP1;P1;durP2;ratioP2;P2;SDS_P1;SDS_P2;PMS_P1;PMS_P2;Temp;Humidity;BMP_temperature;BMP_pressure;BME280_temperature;BME280_humidity;BME280_pressure;Samples;Min_cycle;Max_cycle;Signal;HPM_P1;HPM_P2
2023/04/11 00:00:57;;;;;;;;;;;11.30;99.90;;;;;;7339261;19;109930;-71
2023/04/11 00:03:24;;;;;;;;;;;11.40;99.90;;;;;;7338817;19;108434;-70
2023/04/11 00:05:52;;;;;;;;;;;11.30;99.90;;;;;;7336313;19;110644;-70
2023/04/11 00:08:19;;;;;;;;;;;11.30;99.90;;;;;;7340735;19;108482;-71
2023/04/11 00:10:46;;;;;;;;;;;11.20;99.90;;;;;;7341226;19;108638;-69
2023/04/11 00:13:13;;;;;;;;;;;11.20;99.90;;;;;;7338971;19;112696;-69
2023/04/11 00:15:40;;;;;;;;;;;11.20;99.90;;;;;;7335902;19;110324;-69
2023/04/11 00:18:07;;;;;;;;;;;11.20;99.90;;;;;;7344418;19;109350;-70
2023/04/11 00:20:34;;;;;;;;;;;11.20;99.90;;;;;;7337859;19;108780;-71
2023/04/11 00:23:01;;;;;;;;;;;11.20;99.90;;;;;;7339165;19;109732;-69
2023/04/11 00:25:29;;;;;;;;;;;11.20;99.90;;;;;;7337791;19;110249;-69
2023/04/11 00:27:56;;;;;;;;;;;11.10;99.90;;;;;;7338589;19;108838;-69
2023/04/11 00:30:25;;;;;;;;;;;11.10;99.90;;;;;;7336685;19;109546;-69
2023/04/11 00:32:52;;;;;;;;;;;11.10;99.90;;;;;;7337428;19;111512;-69
2023/04/11 00:35:20;;;;;;;;;;;11.10;99.90;;;;;;7336382;19;108613;-70
2023/04/11 00:37:53;;;;;;;;;;;11.10;99.90;;;;;;7334532;19;109906;-69
2023/04/11 00:40:20;;;;;;;;;;;11.10;99.90;;;;;;7341298;19;109610;-69
2023/04/11 00:42:47;;;;;;;;;;;11.10;99.90;;;;;;7334367;19;108808;-69
2023/04/11 00:45:14;;;;;;;;;;;11.00;99.90;;;;;;7337346;19;110194;-69
2023/04/11 00:47:41;;;;;;;;;;;11.00;99.90;;;;;;7335766;19;108562;-69
2023/04/11 00:50:08;;;;;;;;;;;11.00;99.90;;;;;;7338580;19;109065;-69
2023/04/11 00:52:35;;;;;;;;;;;11.00;99.90;;;;;;7337002;19;109482;-69
2023/04/11 00:55:03;;;;;;;;;;;11.00;99.90;;;;;;7338495;19;108738;-69
2023/04/11 00:57:31;;;;;;;;;;;10.90;99.90;;;;;;7339816;19;110567;-69
2023/04/11 00:59:59;;;;;;;;;;;10.90;99.90;;;;;;7340562;19;109634;-69
2023/04/11 01:02:32;;;;;;;;;;;10.90;99.90;;;;;;7336244;19;109088;-69
2023/04/11 01:05:00;;;;;;;;;;;10.90;99.90;;;;;;7337008;19;109242;-69
2023/04/11 01:07:28;;;;;;;;;;;10.90;99.90;;;;;;7338455;19;108297;-69
2023/04/11 01:09:55;;;;;;;;;;;10.80;99.90;;;;;;7335666;19;109805;-69
2023/04/11 01:12:23;;;;;;;;;;;10.80;99.90;;;;;;7337880;19;111307;-69
2023/04/11 01:14:50;;;;;;;;;;;10.90;99.90;;;;;;7337215;19;108870;-69
2023/04/11 01:17:20;;;;;;;;;;;10.80;99.90;;;;;;7335633;19;110903;-69
2023/04/11 01:19:47;;;;;;;;;;;10.80;99.90;;;;;;7336411;19;109335;-69
2023/04/11 01:22:16;;;;;;;;;;;10.80;99.90;;;;;;7340698;19;110085;-69
2023/04/11 01:24:43;;;;;;;;;;;10.80;99.90;;;;;;7336504;19;109399;-69
2023/04/11 01:27:10;;;;;;;;;;;10.80;99.90;;;;;;7336083;19;109063;-70
2023/04/11 01:29:38;;;;;;;;;;;10.80;99.90;;;;;;7336812;19;109412;-70
2023/04/11 01:32:05;;;;;;;;;;;10.80;99.90;;;;;;7335496;19;109511;-69
2023/04/11 01:34:32;;;;;;;;;;;10.80;99.90;;;;;;7338084;19;109639;-69
2023/04/11 01:37:00;;;;;;;;;;;10.70;99.90;;;;;;7338291;19;109536;-69
2023/04/11 01:39:27;;;;;;;;;;;10.70;99.90;;;;;;7336922;19;111598;-69
2023/04/11 01:41:58;;;;;;;;;;;10.70;99.90;;;;;;7334753;19;108956;-69
2023/04/11 01:44:29;;;;;;;;;;;10.70;99.90;;;;;;7338014;19;109364;-69
2023/04/11 01:46:56;;;;;;;;;;;10.70;99.90;;;;;;7334881;19;110117;-69
2023/04/11 01:49:23;;;;;;;;;;;10.60;99.90;;;;;;7335881;19;110212;-70
2023/04/11 01:51:50;;;;;;;;;;;10.60;99.90;;;;;;7336079;19;109165;-69
2023/04/11 01:54:17;;;;;;;;;;;10.60;99.90;;;;;;7336529;19;108561;-70
2023/04/11 01:56:48;;;;;;;;;;;10.60;99.90;;;;;;7335193;19;119304;-69
2023/04/11 01:59:15;;;;;;;;;;;10.60;99.90;;;;;;7332785;19;109612;-70
2023/04/11 02:01:43;;;;;;;;;;;10.60;99.90;;;;;;7335282;19;109557;-69
2023/04/11 02:04:10;;;;;;;;;;;10.60;99.90;;;;;;7335101;19;109502;-69
2023/04/11 02:06:37;;;;;;;;;;;10.50;99.90;;;;;;7340332;19;109273;-69
2023/04/11 02:09:04;;;;;;;;;;;10.50;99.90;;;;;;7333534;19;109465;-69
2023/04/11 02:11:32;;;;;;;;;;;10.50;99.90;;;;;;7337563;19;110152;-69
2023/04/11 02:14:01;;;;;;;;;;;10.50;99.90;;;;;;7334023;19;109528;-69
2023/04/11 02:16:28;;;;;;;;;;;10.50;99.90;;;;;;7337973;19;109127;-69
2023/04/11 02:18:56;;;;;;;;;;;10.50;99.90;;;;;;7329429;19;109940;-69
2023/04/11 02:21:23;;;;;;;;;;;10.50;99.90;;;;;;7332922;19;110059;-69
2023/04/11 02:23:50;;;;;;;;;;;10.50;99.90;;;;;;7333233;19;108812;-69
2023/04/11 02:26:17;;;;;;;;;;;10.50;99.90;;;;;;7332888;19;109540;-69
2023/04/11 02:28:44;;;;;;;;;;;10.50;99.90;;;;;;7339381;19;110299;-69
2023/04/11 02:31:11;;;;;;;;;;;10.40;99.90;;;;;;7331570;19;110117;-69
2023/04/11 02:33:38;;;;;;;;;;;10.50;99.90;;;;;;7332813;19;109982;-69
2023/04/11 02:36:06;;;;;;;;;;;10.50;99.90;;;;;;7335510;19;109443;-69
2023/04/11 02:38:33;;;;;;;;;;;10.40;99.90;;;;;;7332170;19;109888;-69
2023/04/11 02:41:00;;;;;;;;;;;10.40;99.90;;;;;;7333244;19;109188;-70
2023/04/11 02:43:27;;;;;;;;;;;10.40;99.90;;;;;;7332395;19;108957;-69
2023/04/11 02:45:55;;;;;;;;;;;10.40;99.90;;;;;;7325574;19;109937;-69
2023/04/11 02:48:37;;;;;;;;;;;10.30;99.90;;;;;;7330372;19;109356;-70
2023/04/11 02:51:04;;;;;;;;;;;10.30;99.90;;;;;;7333957;19;108901;-70
2023/04/11 02:53:32;;;;;;;;;;;10.30;99.90;;;;;;7333914;19;108532;-69
2023/04/11 02:55:59;;;;;;;;;;;10.30;99.90;;;;;;7342805;19;110191;-69
2023/04/11 02:58:27;;;;;;;;;;;10.30;99.90;;;;;;7338038;19;111503;-69
2023/04/11 03:00:55;;;;;;;;;;;10.20;99.90;;;;;;7339984;19;109261;-70
2023/04/11 03:03:25;;;;;;;;;;;10.20;99.90;;;;;;7341126;19;109290;-69
2023/04/11 03:05:52;;;;;;;;;;;10.20;99.90;;;;;;7337364;19;113867;-69
2023/04/11 03:08:19;;;;;;;;;;;10.20;99.90;;;;;;7339974;19;109642;-69
2023/04/11 03:10:46;;;;;;;;;;;10.20;99.90;;;;;;7343835;19;110336;-69
2023/04/11 03:13:13;;;;;;;;;;;10.20;99.90;;;;;;7337760;19;108853;-69
2023/04/11 03:15:40;;;;;;;;;;;10.10;99.90;;;;;;7337975;19;109291;-69
2023/04/11 03:18:10;;;;;;;;;;;10.10;99.90;;;;;;7338606;19;109780;-69
2023/04/11 03:20:37;;;;;;;;;;;10.10;99.90;;;;;;7338557;19;108836;-70
2023/04/11 03:23:04;;;;;;;;;;;10.20;99.90;;;;;;7339960;19;111101;-69
2023/04/11 03:25:31;;;;;;;;;;;10.10;99.90;;;;;;7340830;19;110367;-70
2023/04/11 03:27:58;;;;;;;;;;;10.10;99.90;;;;;;7336882;19;108516;-70
2023/04/11 03:30:25;;;;;;;;;;;10.10;99.90;;;;;;7339514;19;109985;-69
2023/04/11 03:32:52;;;;;;;;;;;10.10;99.90;;;;;;7344887;19;110094;-70
2023/04/11 03:35:19;;;;;;;;;;;10.10;99.90;;;;;;7340249;19;109068;-69
2023/04/11 03:37:46;;;;;;;;;;;10.10;99.90;;;;;;7340939;19;110255;-69
2023/04/11 03:40:13;;;;;;;;;;;10.00;99.90;;;;;;7342008;19;108638;-69
2023/04/11 03:42:40;;;;;;;;;;;10.00;99.90;;;;;;7339378;19;110462;-70
2023/04/11 03:45:08;;;;;;;;;;;10.00;99.90;;;;;;7340002;19;109255;-70
2023/04/11 03:47:35;;;;;;;;;;;10.00;99.90;;;;;;7340066;19;109738;-70
2023/04/11 03:50:02;;;;;;;;;;;10.00;99.90;;;;;;7339744;19;108768;-69
2023/04/11 03:52:29;;;;;;;;;;;9.90;99.90;;;;;;7341076;19;110634;-70
2023/04/11 03:54:56;;;;;;;;;;;10.00;99.90;;;;;;7344518;19;109248;-69
2023/04/11 03:57:25;;;;;;;;;;;9.90;99.90;;;;;;7341182;19;109613;-69
2023/04/11 03:59:54;;;;;;;;;;;9.90;99.90;;;;;;7341361;19;108735;-70
2023/04/11 04:02:21;;;;;;;;;;;9.80;99.90;;;;;;7339665;19;109085;-70
2023/04/11 04:04:57;;;;;;;;;;;9.80;99.90;;;;;;7337352;19;109783;-71
2023/04/11 04:07:25;;;;;;;;;;;9.80;99.90;;;;;;7340795;19;108814;-69
2023/04/11 04:09:53;;;;;;;;;;;9.80;99.90;;;;;;7339840;19;112499;-71
2023/04/11 04:12:20;;;;;;;;;;;9.80;99.90;;;;;;7337981;19;110071;-70
2023/04/11 04:14:47;;;;;;;;;;;9.80;99.90;;;;;;7339797;19;108694;-70
2023/04/11 04:17:15;;;;;;;;;;;9.80;99.90;;;;;;7344400;19;109287;-72
2023/04/11 04:19:42;;;;;;;;;;;9.80;99.90;;;;;;7335994;19;111304;-70
2023/04/11 04:22:16;;;;;;;;;;;9.70;99.90;;;;;;7340203;19;109976;-70
2023/04/11 04:24:46;;;;;;;;;;;9.70;99.90;;;;;;7337265;19;114353;-70
2023/04/11 04:27:16;;;;;;;;;;;9.70;99.90;;;;;;7341933;19;108613;-69
2023/04/11 04:29:47;;;;;;;;;;;9.70;99.90;;;;;;7338594;19;108828;-70
2023/04/11 04:32:21;;;;;;;;;;;9.70;99.90;;;;;;7340018;19;110349;-75
2023/04/11 04:34:53;;;;;;;;;;;9.60;99.90;;;;;;7336769;19;108944;-75
2023/04/11 04:37:21;;;;;;;;;;;9.60;99.90;;;;;;7339634;19;109461;-72
2023/04/11 04:39:55;;;;;;;;;;;9.60;99.90;;;;;;7341079;19;111373;-77
2023/04/11 04:42:22;;;;;;;;;;;9.50;99.90;;;;;;7335459;19;109367;-80
2023/04/11 04:44:50;;;;;;;;;;;9.50;99.90;;;;;;7336306;19;110622;-70
2023/04/11 04:47:17;;;;;;;;;;;9.50;99.90;;;;;;7338024;19;109296;-73
2023/04/11 04:49:45;;;;;;;;;;;9.50;99.90;;;;;;7338152;19;110249;-70
2023/04/11 04:52:15;;;;;;;;;;;9.50;99.90;;;;;;7334052;19;113071;-71
2023/04/11 04:54:42;;;;;;;;;;;9.50;99.90;;;;;;7336352;19;109020;-70
2023/04/11 04:57:09;;;;;;;;;;;9.40;99.90;;;;;;7337537;19;108489;-70
2023/04/11 04:59:36;;;;;;;;;;;9.50;99.90;;;;;;7334939;19;109950;-70
2023/04/11 05:02:03;;;;;;;;;;;9.40;99.90;;;;;;7343131;19;109637;-70
2023/04/11 05:04:33;;;;;;;;;;;9.40;99.90;;;;;;7337880;19;110471;-70
2023/04/11 05:07:00;;;;;;;;;;;9.40;99.90;;;;;;7338068;19;108567;-72
2023/04/11 05:09:27;;;;;;;;;;;9.40;99.90;;;;;;7337694;19;110339;-70
2023/04/11 05:11:55;;;;;;;;;;;9.40;99.90;;;;;;7336956;19;109164;-70
2023/04/11 05:14:22;;;;;;;;;;;9.40;99.90;;;;;;7336428;19;108914;-70
2023/04/11 05:16:49;;;;;;;;;;;9.40;99.90;;;;;;7336085;19;109473;-70
2023/04/11 05:19:16;;;;;;;;;;;9.40;99.90;;;;;;7337844;19;110084;-70
2023/04/11 05:21:43;;;;;;;;;;;9.40;99.90;;;;;;7340449;19;108770;-71
2023/04/11 05:24:10;;;;;;;;;;;9.40;99.90;;;;;;7335299;19;110633;-70
2023/04/11 05:26:37;;;;;;;;;;;9.40;99.90;;;;;;7336029;19;108906;-70
2023/04/11 05:29:05;;;;;;;;;;;9.40;99.90;;;;;;7335922;19;109962;-74
2023/04/11 05:31:32;;;;;;;;;;;9.40;99.90;;;;;;7332275;19;110561;-70
2023/04/11 05:33:59;;;;;;;;;;;9.40;99.90;;;;;;7336782;19;111023;-70
2023/04/11 05:36:27;;;;;;;;;;;9.40;99.90;;;;;;7338008;19;108821;-71
2023/04/11 05:38:54;;;;;;;;;;;9.40;99.90;;;;;;7336299;19;112209;-70
2023/04/11 05:41:21;;;;;;;;;;;9.40;99.90;;;;;;7339518;19;109108;-69
2023/04/11 05:43:48;;;;;;;;;;;9.50;99.90;;;;;;7342496;19;111927;-70
2023/04/11 05:46:15;;;;;;;;;;;9.50;99.90;;;;;;7336283;19;109479;-70
2023/04/11 05:48:43;;;;;;;;;;;9.60;99.90;;;;;;7336866;19;108637;-70
2023/04/11 05:51:10;;;;;;;;;;;9.50;99.90;;;;;;7335950;19;111321;-70
2023/04/11 05:53:37;;;;;;;;;;;9.60;99.90;;;;;;7336359;19;109301;-66
2023/04/11 05:56:04;;;;;;;;;;;9.60;99.90;;;;;;7335812;19;108619;-65
2023/04/11 05:58:32;;;;;;;;;;;9.60;99.90;;;;;;7333231;19;109354;-65
2023/04/11 06:01:00;;;;;;;;;;;9.70;99.90;;;;;;7334317;19;108547;-65
2023/04/11 06:03:27;;;;;;;;;;;9.70;99.90;;;;;;7336989;19;108589;-65
2023/04/11 06:05:54;;;;;;;;;;;9.70;99.90;;;;;;7336861;19;110015;-63
2023/04/11 06:08:21;;;;;;;;;;;9.80;99.90;;;;;;7331596;19;108942;-61
2023/04/11 06:10:49;;;;;;;;;;;9.80;99.90;;;;;;7335249;19;110227;-61
2023/04/11 06:13:16;;;;;;;;;;;9.80;99.90;;;;;;7335808;19;109420;-62
2023/04/11 06:15:43;;;;;;;;;;;9.90;99.90;;;;;;7336881;19;112019;-61
2023/04/11 06:18:11;;;;;;;;;;;9.90;99.90;;;;;;7335174;19;109059;-62
2023/04/11 06:20:38;;;;;;;;;;;9.90;99.90;;;;;;7338288;19;108828;-62
2023/04/11 06:23:06;;;;;;;;;;;10.00;99.90;;;;;;7333100;19;109785;-62
2023/04/11 06:25:33;;;;;;;;;;;10.00;99.90;;;;;;7335517;19;111339;-62
2023/04/11 06:28:00;;;;;;;;;;;10.10;99.90;;;;;;7335746;19;110297;-62
2023/04/11 06:30:27;;;;;;;;;;;10.10;99.90;;;;;;7333912;19;110236;-62
2023/04/11 06:32:55;;;;;;;;;;;10.20;99.90;;;;;;7333649;19;110850;-63
2023/04/11 06:35:25;;;;;;;;;;;10.20;99.90;;;;;;7337122;19;109471;-62
2023/04/11 06:37:52;;;;;;;;;;;10.20;99.90;;;;;;7335139;19;109808;-62
2023/04/11 06:40:19;;;;;;;;;;;10.30;99.90;;;;;;7335846;19;108521;-62
2023/04/11 06:42:46;;;;;;;;;;;10.30;99.90;;;;;;7336934;19;109099;-62
2023/04/11 06:45:13;;;;;;;;;;;10.40;99.90;;;;;;7334862;19;110043;-62
2023/04/11 06:47:40;;;;;;;;;;;10.50;99.90;;;;;;7335286;19;109561;-62
2023/04/11 06:50:08;;;;;;;;;;;10.50;99.90;;;;;;7340496;19;109561;-62
2023/04/11 06:52:35;;;;;;;;;;;10.50;99.90;;;;;;7335038;19;108853;-62
2023/04/11 06:55:03;;;;;;;;;;;10.60;99.90;;;;;;7337008;19;109195;-62
2023/04/11 06:57:30;;;;;;;;;;;10.70;99.90;;;;;;7335367;19;110098;-62
2023/04/11 06:59:57;;;;;;;;;;;10.80;99.90;;;;;;7334462;19;109100;-62
2023/04/11 07:02:35;;;;;;;;;;;10.80;99.90;;;;;;7334679;19;108815;-62
2023/04/11 07:05:04;;;;;;;;;;;10.90;99.90;;;;;;7334780;19;111494;-62
2023/04/11 07:07:31;;;;;;;;;;;11.00;99.90;;;;;;7332702;19;109265;-62
2023/04/11 07:09:58;;;;;;;;;;;11.00;99.90;;;;;;7340355;19;113691;-62
2023/04/11 07:12:25;;;;;;;;;;;11.00;99.90;;;;;;7334259;19;111107;-62
2023/04/11 07:14:52;;;;;;;;;;;11.00;99.90;;;;;;7332442;19;109852;-62
2023/04/11 07:17:19;;;;;;;;;;;11.00;99.90;;;;;;7333426;19;110383;-62
2023/04/11 07:19:46;;;;;;;;;;;11.10;99.90;;;;;;7334214;19;108979;-62
2023/04/11 07:22:13;;;;;;;;;;;11.10;99.90;;;;;;7334310;19;109035;-62
2023/04/11 07:24:42;;;;;;;;;;;11.10;99.90;;;;;;7333179;19;109987;-62
2023/04/11 07:27:12;;;;;;;;;;;11.20;99.90;;;;;;7333867;19;110084;-62
2023/04/11 07:29:40;;;;;;;;;;;11.30;99.90;;;;;;7332634;19;108925;-62
2023/04/11 07:32:07;;;;;;;;;;;11.30;99.90;;;;;;7336301;19;109304;-61
2023/04/11 07:34:34;;;;;;;;;;;11.40;99.90;;;;;;7331951;19;108608;-62
2023/04/11 07:37:01;;;;;;;;;;;11.40;99.90;;;;;;7333330;19;109072;-62
2023/04/11 07:39:28;;;;;;;;;;;11.50;99.90;;;;;;7333850;19;108559;-62
2023/04/11 07:41:55;;;;;;;;;;;11.40;99.90;;;;;;7338597;19;108861;-62
2023/04/11 07:44:22;;;;;;;;;;;11.50;99.90;;;;;;7340210;19;111019;-62
2023/04/11 07:46:50;;;;;;;;;;;11.60;99.90;;;;;;7337714;19;108798;-61
2023/04/11 07:49:17;;;;;;;;;;;11.60;99.90;;;;;;7339289;19;110176;-62
2023/04/11 07:51:44;;;;;;;;;;;11.60;99.90;;;;;;7340771;19;111105;-62
2023/04/11 07:54:12;;;;;;;;;;;11.70;99.90;;;;;;7344815;19;108757;-62
2023/04/11 07:56:39;;;;;;;;;;;11.80;99.90;;;;;;7337493;19;109448;-62
2023/04/11 07:59:06;;;;;;;;;;;11.80;99.90;;;;;;7338952;19;109327;-64
2023/04/11 08:01:33;;;;;;;;;;;11.80;99.90;;;;;;7337909;19;108329;-64
2023/04/11 08:04:00;;;;;;;;;;;11.90;99.90;;;;;;7339430;19;109332;-64
2023/04/11 08:06:28;;;;;;;;;;;11.90;99.90;;;;;;7339688;19;108452;-64
2023/04/11 08:08:55;;;;;;;;;;;11.90;99.90;;;;;;7338936;19;108730;-64
2023/04/11 08:11:22;;;;;;;;;;;11.90;99.90;;;;;;7339927;19;109287;-64
2023/04/11 08:13:49;;;;;;;;;;;12.00;99.90;;;;;;7337917;19;108513;-64
2023/04/11 08:16:16;;;;;;;;;;;12.10;99.90;;;;;;7340962;19;109368;-64
2023/04/11 08:18:44;;;;;;;;;;;12.10;99.90;;;;;;7336826;19;109453;-64
2023/04/11 08:21:11;;;;;;;;;;;12.30;99.90;;;;;;7337246;19;109313;-63
2023/04/11 08:23:40;;;;;;;;;;;12.40;99.90;;;;;;7338287;19;109106;-64
2023/04/11 08:26:10;;;;;;;;;;;12.50;99.90;;;;;;7338152;19;109620;-64
2023/04/11 08:28:38;;;;;;;;;;;12.60;99.90;;;;;;7337820;19;109027;-64
2023/04/11 08:31:09;;;;;;;;;;;12.70;99.90;;;;;;7336183;19;109488;-64
2023/04/11 08:33:37;;;;;;;;;;;12.80;99.90;;;;;;7336330;19;109080;-64
2023/04/11 08:36:08;;;;;;;;;;;12.90;99.90;;;;;;7341215;19;108857;-62
2023/04/11 08:38:36;;;;;;;;;;;12.90;99.90;;;;;;7342944;19;108836;-64
2023/04/11 08:41:04;;;;;;;;;;;13.00;99.90;;;;;;7339606;19;110172;-65
2023/04/11 08:43:34;;;;;;;;;;;13.10;99.90;;;;;;7337940;19;109494;-76
2023/04/11 08:46:02;;;;;;;;;;;13.10;99.90;;;;;;7340184;19;108367;-67
2023/04/11 08:48:31;;;;;;;;;;;13.10;99.90;;;;;;7338444;19;108261;-69
2023/04/11 08:50:58;;;;;;;;;;;13.20;99.90;;;;;;7337496;19;109086;-68
2023/04/11 08:53:25;;;;;;;;;;;13.20;99.90;;;;;;7339685;19;109076;-67
2023/04/11 08:55:53;;;;;;;;;;;13.20;99.90;;;;;;7338366;19;108752;-66
2023/04/11 08:58:20;;;;;;;;;;;13.20;99.90;;;;;;7337760;19;109711;-67
2023/04/11 09:06:19;;;;;;;;;;;13.40;99.90;;;;;;7333836;19;111109;-64
2023/04/11 09:08:46;;;;;;;;;;;13.50;99.90;;;;;;7337031;19;109899;-64
2023/04/11 09:11:13;;;;;;;;;;;13.50;99.90;;;;;;7338425;19;109488;-64
2023/04/11 09:13:40;;;;;;;;;;;13.50;99.90;;;;;;7336878;19;108405;-65
2023/04/11 09:16:08;;;;;;;;;;;13.60;99.90;;;;;;7337976;19;109028;-65
2023/04/11 09:18:37;;;;;;;;;;;13.70;99.90;;;;;;7336897;19;110154;-65
2023/04/11 09:21:08;;;;;;;;;;;13.60;99.90;;;;;;7345064;19;108347;-64
2023/04/11 09:23:35;;;;;;;;;;;13.70;99.90;;;;;;7335583;19;109110;-64
2023/04/11 09:26:04;;;;;;;;;;;13.70;99.90;;;;;;7336777;19;109163;-64
2023/04/11 09:28:52;;;;;;;;;;;13.90;99.90;;;;;;7336606;19;109332;-64
2023/04/11 09:31:20;;;;;;;;;;;13.90;99.90;;;;;;7335793;19;110565;-68
2023/04/11 09:33:54;;;;;;;;;;;13.90;99.90;;;;;;7336462;19;108427;-65
2023/04/11 09:36:22;;;;;;;;;;;14.10;99.90;;;;;;7336555;19;109396;-64
2023/04/11 09:38:50;;;;;;;;;;;14.10;99.90;;;;;;7336887;19;110205;-65
2023/04/11 09:41:33;;;;;;;;;;;14.20;99.90;;;;;;7337899;19;109356;-65
2023/04/11 09:44:00;;;;;;;;;;;14.20;99.90;;;;;;7341642;19;108617;-66
2023/04/11 09:46:28;;;;;;;;;;;14.20;99.90;;;;;;7338618;19;108533;-67
2023/04/11 09:48:55;;;;;;;;;;;14.30;99.90;;;;;;7339059;19;108984;-65
2023/04/11 09:51:22;;;;;;;;;;;14.30;99.90;;;;;;7337660;19;109056;-64
2023/04/11 09:53:53;;;;;;;;;;;14.10;99.90;;;;;;7337169;19;108935;-65
2023/04/11 09:56:22;;;;;;;;;;;14.20;99.90;;;;;;7330643;19;109991;-65
2023/04/11 09:58:50;;;;;;;;;;;14.20;99.90;;;;;;7339674;19;110212;-70
2023/04/11 10:01:18;;;;;;;;;;;14.30;99.90;;;;;;7340304;19;108954;-65
2023/04/11 10:03:49;;;;;;;;;;;14.40;99.90;;;;;;7335528;19;109054;-67
2023/04/11 10:06:37;;;;;;;;;;;14.30;99.90;;;;;;7339233;19;109565;-65
2023/04/11 10:09:09;;;;;;;;;;;14.30;99.90;;;;;;7335238;19;109029;-65
2023/04/11 10:11:43;;;;;;;;;;;14.20;99.90;;;;;;7336725;19;110176;-64
2023/04/11 10:14:29;;;;;;;;;;;14.20;99.90;;;;;;7337114;19;108673;-65
2023/04/11 10:17:15;;;;;;;;;;;14.10;99.90;;;;;;7336359;19;109485;-64
2023/04/11 10:19:48;;;;;;;;;;;14.10;99.90;;;;;;7335356;19;109337;-65
2023/04/11 10:22:33;;;;;;;;;;;14.30;99.90;;;;;;7337003;19;108360;-66
2023/04/11 10:25:14;;;;;;;;;;;14.30;99.90;;;;;;7335939;19;109062;-68
2023/04/11 10:27:45;;;;;;;;;;;14.40;99.90;;;;;;7336759;19;109216;-65
2023/04/11 10:30:12;;;;;;;;;;;14.40;99.90;;;;;;7339284;19;109134;-64
2023/04/11 10:32:40;;;;;;;;;;;14.40;99.90;;;;;;7332745;19;109672;-68
2023/04/11 10:37:38;;;;;;;;;;;14.60;99.90;;;;;;7330670;19;108584;-88
2023/04/11 10:40:11;;;;;;;;;;;14.70;99.90;;;;;;7333432;19;110303;-89
2023/04/11 10:42:42;;;;;;;;;;;14.80;99.90;;;;;;7333197;19;109524;-88
2023/04/11 10:45:20;;;;;;;;;;;14.90;99.90;;;;;;7332439;19;111990;-64
2023/04/11 10:47:50;;;;;;;;;;;15.00;99.90;;;;;;7335948;19;109262;-67
2023/04/11 10:50:30;;;;;;;;;;;15.00;99.90;;;;;;7336000;19;108770;-64
2023/04/11 10:53:02;;;;;;;;;;;15.00;99.90;;;;;;7339336;19;108758;-64
2023/04/11 10:55:31;;;;;;;;;;;15.00;99.90;;;;;;7332761;19;109879;-63
2023/04/11 10:58:06;;;;;;;;;;;15.10;99.90;;;;;;7334155;19;110264;-64
2023/04/11 11:00:51;;;;;;;;;;;15.20;99.90;;;;;;7333809;19;110942;-64
2023/04/11 11:03:20;;;;;;;;;;;15.20;99.90;;;;;;7334721;19;108708;-64
2023/04/11 11:05:55;;;;;;;;;;;15.60;99.90;;;;;;7331985;19;108325;-63
2023/04/11 11:08:29;;;;;;;;;;;15.60;99.90;;;;;;7333715;19;109536;-63
2023/04/11 11:11:02;;;;;;;;;;;15.60;99.90;;;;;;7335240;19;109314;-63
2023/04/11 11:13:38;;;;;;;;;;;15.70;99.90;;;;;;7335692;19;109571;-64
2023/04/11 11:16:06;;;;;;;;;;;15.80;99.90;;;;;;7346766;19;110184;-63
2023/04/11 11:18:37;;;;;;;;;;;15.80;99.90;;;;;;7341848;19;110176;-63
2023/04/11 11:21:04;;;;;;;;;;;15.90;99.90;;;;;;7339996;19;109631;-64
2023/04/11 11:23:39;;;;;;;;;;;15.90;99.60;;;;;;7339564;19;108784;-63
2023/04/11 11:26:06;;;;;;;;;;;16.10;99.40;;;;;;7340489;19;109001;-63
2023/04/11 11:28:43;;;;;;;;;;;16.00;99.30;;;;;;7338775;19;109296;-63
2023/04/11 11:31:11;;;;;;;;;;;15.90;99.60;;;;;;7341116;19;110520;-63
2023/04/11 11:33:39;;;;;;;;;;;15.90;99.90;;;;;;7341713;19;108730;-64
2023/04/11 11:36:06;;;;;;;;;;;16.00;99.70;;;;;;7344963;19;112411;-63
2023/04/11 11:38:34;;;;;;;;;;;16.00;99.60;;;;;;7341684;19;109360;-65
2023/04/11 11:41:01;;;;;;;;;;;16.10;99.50;;;;;;7339822;19;109946;-64
2023/04/11 11:43:28;;;;;;;;;;;16.20;98.70;;;;;;7342084;19;108450;-64
2023/04/11 11:46:06;;;;;;;;;;;16.10;98.80;;;;;;7339216;19;108631;-64
2023/04/11 11:48:34;;;;;;;;;;;16.20;99.30;;;;;;7339947;19;109097;-64
2023/04/11 11:51:02;;;;;;;;;;;16.10;97.00;;;;;;7340544;19;108882;-64
2023/04/11 11:53:29;;;;;;;;;;;16.20;96.90;;;;;;7341066;19;110686;-64
2023/04/11 11:55:56;;;;;;;;;;;16.20;97.80;;;;;;7339008;19;109602;-64
2023/04/11 11:58:23;;;;;;;;;;;16.20;98.40;;;;;;7344806;19;109158;-64
2023/04/11 12:00:51;;;;;;;;;;;16.20;97.60;;;;;;7338641;19;109269;-64
2023/04/11 12:03:23;;;;;;;;;;;16.10;97.20;;;;;;7340129;19;108665;-63
2023/04/11 12:05:54;;;;;;;;;;;16.00;97.70;;;;;;7340953;19;108341;-64
2023/04/11 12:08:23;;;;;;;;;;;15.70;98.10;;;;;;7341315;19;110126;-64
2023/04/11 12:10:50;;;;;;;;;;;15.70;98.70;;;;;;7337796;19;108953;-64
2023/04/11 12:13:22;;;;;;;;;;;15.70;98.30;;;;;;7340675;19;110425;-63
2023/04/11 12:15:53;;;;;;;;;;;15.60;99.10;;;;;;7339033;19;109703;-64
2023/04/11 12:18:21;;;;;;;;;;;15.30;99.90;;;;;;7339241;19;110317;-64
2023/04/11 12:20:48;;;;;;;;;;;15.10;99.90;;;;;;7344275;19;109066;-64
2023/04/11 12:23:16;;;;;;;;;;;15.00;99.90;;;;;;7341377;19;109507;-64
2023/04/11 12:25:43;;;;;;;;;;;14.90;99.90;;;;;;7337020;19;108372;-64
2023/04/11 12:28:11;;;;;;;;;;;14.80;99.90;;;;;;7338696;19;110660;-64
2023/04/11 12:30:38;;;;;;;;;;;14.70;99.90;;;;;;7338816;19;108543;-63
2023/04/11 12:33:05;;;;;;;;;;;14.70;99.90;;;;;;7336789;19;108402;-63
2023/04/11 12:35:32;;;;;;;;;;;14.70;99.90;;;;;;7339232;19;109620;-63
2023/04/11 12:37:59;;;;;;;;;;;14.70;99.90;;;;;;7339462;19;108956;-64
2023/04/11 12:40:28;;;;;;;;;;;14.70;99.90;;;;;;7337725;19;108827;-64
2023/04/11 12:42:55;;;;;;;;;;;14.80;99.90;;;;;;7341527;19;109074;-63
2023/04/11 12:45:23;;;;;;;;;;;14.80;99.90;;;;;;7339269;19;109094;-64
2023/04/11 12:47:51;;;;;;;;;;;14.90;99.90;;;;;;7337020;19;109500;-64
2023/04/11 12:50:18;;;;;;;;;;;15.10;99.90;;;;;;7336898;19;108891;-63
2023/04/11 12:52:47;;;;;;;;;;;15.20;99.90;;;;;;7335959;19;108418;-63
2023/04/11 12:55:14;;;;;;;;;;;15.50;99.90;;;;;;7338994;19;109912;-64
2023/04/11 12:57:42;;;;;;;;;;;15.60;99.90;;;;;;7340126;19;108946;-64
2023/04/11 13:00:11;;;;;;;;;;;15.70;99.90;;;;;;7339794;19;110193;-64
2023/04/11 13:02:38;;;;;;;;;;;15.90;99.90;;;;;;7335802;19;112208;-64
2023/04/11 13:05:12;;;;;;;;;;;16.20;99.90;;;;;;7346351;19;108342;-64
2023/04/11 13:07:43;;;;;;;;;;;16.40;99.90;;;;;;7335825;19;109551;-64
2023/04/11 13:10:12;;;;;;;;;;;16.50;99.90;;;;;;7338780;19;108880;-64
2023/04/11 13:12:43;;;;;;;;;;;16.70;99.90;;;;;;7339266;19;109089;-64
2023/04/11 13:15:14;;;;;;;;;;;16.90;99.90;;;;;;7337902;19;109804;-64
2023/04/11 13:17:41;;;;;;;;;;;17.00;99.90;;;;;;7338920;19;110208;-64
2023/04/11 13:20:09;;;;;;;;;;;17.30;99.90;;;;;;7336794;19;109369;-64
2023/04/11 13:22:37;;;;;;;;;;;17.50;99.90;;;;;;7337085;19;108755;-64
2023/04/11 13:25:05;;;;;;;;;;;17.80;99.90;;;;;;7337367;19;109231;-64
2023/04/11 13:27:33;;;;;;;;;;;17.90;99.30;;;;;;7342739;19;108341;-64
2023/04/11 13:30:00;;;;;;;;;;;18.00;99.70;;;;;;7336436;19;108456;-64
2023/04/11 13:32:27;;;;;;;;;;;18.10;99.90;;;;;;7338995;19;108476;-64
2023/04/11 13:34:54;;;;;;;;;;;18.20;99.90;;;;;;7335327;19;109129;-64
2023/04/11 13:37:21;;;;;;;;;;;18.30;99.80;;;;;;7339638;19;108809;-64
2023/04/11 13:39:48;;;;;;;;;;;18.30;98.80;;;;;;7337110;19;111326;-64
2023/04/11 13:42:15;;;;;;;;;;;18.30;99.20;;;;;;7337444;19;110865;-64
2023/04/11 13:44:42;;;;;;;;;;;18.20;98.40;;;;;;7333931;19;108738;-64
2023/04/11 13:47:10;;;;;;;;;;;18.20;98.10;;;;;;7342133;19;109283;-66
2023/04/11 13:49:37;;;;;;;;;;;18.20;99.10;;;;;;7335935;19;109444;-64
2023/04/11 13:52:04;;;;;;;;;;;18.30;99.10;;;;;;7337138;19;108606;-64
2023/04/11 13:54:31;;;;;;;;;;;18.40;99.10;;;;;;7337344;19;109443;-64
2023/04/11 13:56:58;;;;;;;;;;;18.50;98.80;;;;;;7338544;19;108561;-65
2023/04/11 13:59:26;;;;;;;;;;;18.60;98.40;;;;;;7336541;19;108703;-67
2023/04/11 14:01:53;;;;;;;;;;;18.60;99.00;;;;;;7335957;19;110336;-65
2023/04/11 14:04:20;;;;;;;;;;;18.80;98.10;;;;;;7335607;19;108993;-66
2023/04/11 14:06:47;;;;;;;;;;;18.80;97.70;;;;;;7334301;19;111195;-66
2023/04/11 14:09:14;;;;;;;;;;;18.90;98.40;;;;;;7338886;19;110317;-64
2023/04/11 14:11:45;;;;;;;;;;;19.10;98.00;;;;;;7336266;19;109328;-64
2023/04/11 14:14:12;;;;;;;;;;;19.00;97.70;;;;;;7333034;19;110138;-64
2023/04/11 14:16:39;;;;;;;;;;;18.90;98.10;;;;;;7335986;19;109001;-64
2023/04/11 14:19:06;;;;;;;;;;;18.90;98.40;;;;;;7336637;19;108851;-64
2023/04/11 14:21:33;;;;;;;;;;;19.00;97.70;;;;;;7336163;19;109675;-64